DW9160 Weather Reports


Display with metric or nautical units.
time (UTC)temp
F
wind
direction
speed
MPH
gust
MPH
rain 1hr
in
rain 24hr
in
rain mn
in
humidity
%
barometer
mb
20190320080704 46 333 0.0 4.0 0.00 0.00 0.00 67 1011.0
20190320080204 46 333 1.0 4.0 0.00 0.00 0.00 67 1011.1
20190320075704 46 333 1.0 4.0 0.00 0.00 0.00 66 1011.0
20190320075204 46 331 1.0 3.0 0.00 0.00 0.00 66 1011.1
20190320074704 46 327 0.0 2.0 0.00 0.00 0.00 66 1011.2
20190320074204 46 327 0.0 2.0 0.00 0.00 0.00 67 1011.2
20190320073704 46 327 0.0 2.0 0.00 0.00 0.00 66 1011.3
20190320073204 47 327 0.0 1.0 0.00 0.00 0.00 67 1011.3
20190320072704 47 283 0.0 2.0 0.00 0.00 0.00 67 1011.4
20190320072204 47 283 0.0 2.0 0.00 0.00 0.00 67 1011.6
20190320071704 47 284 0.0 0.0 0.00 0.00 0.00 67 1011.4
20190320071204 47 284 0.0 0.0 0.00 0.00 0.00 66 1011.8
20190320070704 46 284 0.0 1.0 0.00 0.00 0.00 67 1011.7
20190320070204 46 284 0.0 1.0 0.00 0.00 0.00 67 1011.6
20190320065704 46 284 0.0 1.0 0.00 0.00 0.00 67 1011.6
20190320065204 46 281 0.0 1.0 0.00 0.00 0.00 68 1011.6
20190320064704 46 252 0.0 4.0 0.00 0.00 0.00 69 1011.7
20190320064204 46 219 1.0 5.0 0.00 0.00 0.00 68 1011.7
20190320063703 46 219 2.0 5.0 0.00 0.00 0.00 69 1011.7
20190320063204 46 219 3.0 6.0 0.00 0.00 0.00 68 1011.6
20190320062703 47 229 3.0 6.0 0.00 0.00 0.00 66 1011.7
20190320062204 47 223 3.0 6.0 0.00 0.00 0.00 65 1011.7
20190320061704 48 223 2.0 4.0 0.00 0.00 0.00 63 1011.7
20190320061204 48 206 1.0 5.0 0.00 0.00 0.00 62 1011.6
20190320060704 49 135 1.0 5.0 0.00 0.00 0.00 61 1011.6
20190320060204 49 130 2.0 5.0 0.00 0.00 0.00 61 1011.6
20190320055703 49 47 2.0 4.0 0.00 0.00 0.00 60 1011.7
20190320055204 48 67 1.0 4.0 0.00 0.00 0.00 64 1011.6
20190320054704 47 63 0.0 2.0 0.00 0.00 0.00 65 1011.7
20190320054204 47 63 0.0 2.0 0.00 0.00 0.00 65 1011.7
20190320053704 47 63 1.0 2.0 0.00 0.00 0.00 66 1011.9
20190320053204 47 63 0.0 2.0 0.00 0.00 0.00 66 1012.1
20190320052704 47 56 0.0 2.0 0.00 0.00 0.00 67 1012.1
20190320052204 47 30 0.0 2.0 0.00 0.00 0.00 67 1012.1
20190320051704 47 345 0.0 2.0 0.00 0.00 0.00 66 1012.1
20190320051204 47 344 0.0 4.0 0.00 0.00 0.00 65 1012.0
20190320050704 47 344 0.0 5.0 0.00 0.00 0.00 65 1012.0
20190320050204 47 344 2.0 5.0 0.00 0.00 0.00 65 1012.0
20190320045704 47 342 3.0 5.0 0.00 0.00 0.00 64 1012.0
20190320045205 48 329 2.0 4.0 0.00 0.00 0.00 63 1012.1
20190320044704 49 330 1.0 4.0 0.00 0.00 0.00 62 1012.1
20190320044204 49 328 1.0 4.0 0.00 0.00 0.00 61 1012.1
20190320043704 49 328 1.0 4.0 0.00 0.00 0.00 62 1012.1
20190320043204 49 327 1.0 4.0 0.00 0.00 0.00 62 1012.1
20190320042704 49 320 0.0 5.0 0.00 0.00 0.00 62 1012.2
20190320042204 49 319 1.0 5.0 0.00 0.00 0.00 61 1012.3
20190320041704 49 317 2.0 5.0 0.00 0.00 0.00 61 1012.2
20190320041204 50 309 3.0 5.0 0.00 0.00 0.00 60 1012.1
20190320040704 50 309 2.0 5.0 0.00 0.00 0.00 60 1012.2
20190320040204 50 334 1.0 5.0 0.00 0.00 0.00 59 1012.2
20190320035704 50 331 3.0 6.0 0.00 0.00 0.00 59 1012.2
20190320035204 50 0 4.0 6.0 0.00 0.00 0.00 59 1012.2
20190320034704 50 329 3.0 6.0 0.00 0.00 0.00 59 1012.3
20190320034205 50 323 2.0 5.0 0.00 0.00 0.00 60 1012.5
20190320033703 50 305 2.0 4.0 0.00 0.00 0.00 60 1012.5
20190320033204 50 297 2.0 4.0 0.00 0.00 0.00 59 1012.6
20190320032703 50 287 1.0 4.0 0.00 0.00 0.00 59 1012.7
20190320032204 51 286 1.0 4.0 0.00 0.00 0.00 59 1012.6
20190320031704 51 0 1.0 3.0 0.00 0.00 0.00 58 1012.6
20190320031205 51 221 1.0 5.0 0.00 0.00 0.00 58 1012.6
20190320030704 51 219 2.0 6.0 0.00 0.00 0.00 58 1012.7
20190320030204 52 219 3.0 8.0 0.00 0.00 0.00 57 1012.7
20190320025704 52 209 4.0 8.0 0.00 0.00 0.00 57 1012.6
20190320025204 52 198 5.0 10.0 0.00 0.00 0.00 56 1012.7
20190320024704 52 190 6.0 13.0 0.00 0.00 0.00 56 1012.9
20190320024204 53 193 7.0 16.0 0.00 0.00 0.00 55 1012.8
20190320023703 53 191 8.0 19.0 0.00 0.00 0.00 55 1012.9
20190320023204 53 0 10.0 20.0 0.00 0.00 0.00 54 1013.0
20190320022703 54 0 12.0 20.0 0.00 0.00 0.00 53 1013.0
20190320022204 55 0 12.0 20.0 0.00 0.00 0.00 51 1013.0
20190320021703 56 0 10.0 20.0 0.00 0.00 0.00 48 1012.9
20190320021204 57 0 5.0 15.0 0.00 0.00 0.00 44 1013.0
20190320020704 58 163 2.0 6.0 0.00 0.00 0.00 37 1012.5
20190320020204 58 107 1.0 6.0 0.00 0.00 0.00 37 1012.3
20190320015704 58 113 2.0 6.0 0.00 0.00 0.00 37 1012.3
20190320015204 58 117 2.0 7.0 0.00 0.00 0.00 36 1012.2
20190320014704 58 144 2.0 7.0 0.00 0.00 0.00 36 1012.3
20190320014203 59 107 2.0 10.0 0.00 0.00 0.00 35 1012.3
20190320013703 59 94 2.0 10.0 0.00 0.00 0.00 35 1012.2
20190320013204 59 143 3.0 10.0 0.00 0.00 0.00 34 1012.2
20190320012704 59 0 3.0 10.0 0.00 0.00 0.00 34 1012.2
20190320012203 60 138 3.0 10.0 0.00 0.00 0.00 34 1012.2
20190320011704 60 147 3.0 13.0 0.00 0.00 0.00 33 1012.1
20190320011204 60 0 3.0 13.0 0.00 0.00 0.00 33 1012.2
20190320010705 60 152 4.0 14.0 0.00 0.00 0.00 33 1012.1
20190320010204 60 83 5.0 14.0 0.00 0.00 0.00 33 1012.1
20190320005704 60 118 6.0 14.0 0.00 0.00 0.00 32 1012.1
20190320005204 60 105 5.0 13.0 0.00 0.00 0.00 32 1012.1
20190320004704 61 90 4.0 13.0 0.00 0.00 0.00 32 1012.1
20190320004203 61 126 4.0 11.0 0.00 0.00 0.00 31 1012.2
20190320003704 61 98 5.0 12.0 0.00 0.00 0.00 31 1012.2
20190320003204 62 0 5.0 12.0 0.00 0.00 0.00 31 1012.2
20190320002704 62 132 4.0 10.0 0.00 0.00 0.00 30 1012.3
20190320002204 62 78 4.0 10.0 0.00 0.00 0.00 30 1012.3
20190320001704 63 115 4.0 10.0 0.00 0.00 0.00 29 1012.3
20190320001204 63 100 4.0 9.0 0.00 0.00 0.00 29 1012.3
20190320000704 63 0 3.0 9.0 0.00 0.00 0.00 29 1012.6
20190320000234 63 123 2.0 7.0 0.00 0.00 0.00 29 1012.6
20190319235704 63 113 3.0 8.0 0.00 0.00 0.00 30 1012.7
20190319235204 63 125 3.0 9.0 0.00 0.00 0.00 29 1012.8
20190319234705 63 126 3.0 10.0 0.00 0.00 0.00 29 1012.8
20190319234205 64 167 4.0 10.0 0.00 0.00 0.00 29 1012.9
20190319233703 63 130 4.0 10.0 0.00 0.00 0.00 29 1012.9
20190319233204 63 92 4.0 14.0 0.00 0.00 0.00 30 1012.9
20190319232704 63 132 5.0 14.0 0.00 0.00 0.00 29 1013.0
20190319232204 63 0 5.0 14.0 0.00 0.00 0.00 30 1013.1
20190319231704 63 105 5.0 14.0 0.00 0.00 0.00 30 1013.0
20190319231204 64 0 5.0 10.0 0.00 0.00 0.00 30 1013.1
20190319230704 64 114 3.0 10.0 0.00 0.00 0.00 30 1013.1
20190319230204 64 134 2.0 10.0 0.00 0.00 0.00 29 1013.1
20190319225704 64 113 2.0 10.0 0.00 0.00 0.00 29 1013.3
20190319225204 64 124 3.0 9.0 0.00 0.00 0.00 28 1013.1
20190319224704 64 165 3.0 13.0 0.00 0.00 0.00 28 1013.3
20190319224204 64 114 4.0 13.0 0.00 0.00 0.00 28 1013.3
20190319223704 65 126 4.0 14.0 0.00 0.00 0.00 27 1013.3
20190319223204 65 164 4.0 14.0 0.00 0.00 0.00 28 1013.3
20190319222704 65 143 5.0 14.0 0.00 0.00 0.00 27 1013.3
20190319222204 65 162 5.0 14.0 0.00 0.00 0.00 27 1013.4
20190319221704 65 116 6.0 12.0 0.00 0.00 0.00 27 1013.4
20190319221204 65 126 4.0 15.0 0.00 0.00 0.00 27 1013.4
20190319220704 65 183 6.0 16.0 0.00 0.00 0.00 27 1013.4
20190319220204 65 161 8.0 16.0 0.00 0.00 0.00 27 1013.5
20190319215704 65 0 7.0 16.0 0.00 0.00 0.00 27 1013.4
20190319215205 65 163 7.0 15.0 0.00 0.00 0.00 26 1013.5
20190319214704 66 130 6.0 15.0 0.00 0.00 0.00 26 1013.5
20190319214204 66 164 5.0 16.0 0.00 0.00 0.00 25 1013.5
20190319213704 67 113 6.0 16.0 0.00 0.00 0.00 25 1013.5
20190319213204 67 169 5.0 14.0 0.00 0.00 0.00 25 1013.5
20190319212704 67 164 4.0 17.0 0.00 0.00 0.00 26 1013.5
20190319212204 66 175 6.0 17.0 0.00 0.00 0.00 26 1013.6
20190319211704 67 175 7.0 17.0 0.00 0.00 0.00 25 1013.6
20190319211204 67 171 6.0 18.0 0.00 0.00 0.00 25 1013.6
20190319210704 67 155 7.0 18.0 0.00 0.00 0.00 25 1013.7
20190319210204 67 126 7.0 18.0 0.00 0.00 0.00 25 1013.8
20190319205704 66 0 5.0 12.0 0.00 0.00 0.00 26 1013.9
20190319205204 65 150 4.0 16.0 0.00 0.00 0.00 26 1013.9
20190319204705 65 150 6.0 16.0 0.00 0.00 0.00 29 1014.0
20190319204204 64 117 8.0 16.0 0.00 0.00 0.00 29 1014.0
20190319203704 64 0 7.0 21.0 0.00 0.00 0.00 29 1014.0
20190319203204 64 101 8.0 21.0 0.00 0.00 0.00 29 1014.0
20190319202704 63 140 9.0 21.0 0.00 0.00 0.00 29 1014.3
20190319202205 63 55 7.0 18.0 0.00 0.00 0.00 30 1014.3
20190319201704 63 94 7.0 17.0 0.00 0.00 0.00 31 1014.5
20190319201204 62 175 8.0 17.0 0.00 0.00 0.00 31 1014.5
20190319200704 62 113 7.0 17.0 0.00 0.00 0.00 31 1014.6
20190319200204 62 115 6.0 16.0 0.00 0.00 0.00 31 1014.7
20190319195704 61 89 7.0 16.0 0.00 0.00 0.00 32 1014.7
20190319195204 62 0 7.0 16.0 0.00 0.00 0.00 31 1014.7
20190319194704 62 0 6.0 14.0 0.00 0.00 0.00 31 1014.7
20190319194204 61 0 6.0 15.0 0.00 0.00 0.00 31 1014.7
20190319193704 61 117 6.0 19.0 0.00 0.00 0.00 31 1014.7
20190319193204 61 91 7.0 19.0 0.00 0.00 0.00 32 1014.8
20190319192704 61 0 7.0 18.0 0.00 0.00 0.00 32 1014.7
20190319192204 61 127 8.0 18.0 0.00 0.00 0.00 32 1014.7
20190319191704 60 111 10.0 17.0 0.00 0.00 0.00 33 1014.8
20190319191204 59 103 9.0 15.0 0.00 0.00 0.00 35 1014.8
20190319190704 57 66 7.0 13.0 0.00 0.00 0.00 39 1015.0
20190319190204 56 0 7.0 13.0 0.00 0.00 0.00 42 1015.1
20190319185704 56 72 7.0 13.0 0.00 0.00 0.00 43 1015.2
20190319185204 55 67 6.0 13.0 0.00 0.00 0.00 43 1015.3
20190319184704 55 0 5.0 12.0 0.00 0.00 0.00 43 1015.4
20190319184204 55 35 6.0 13.0 0.00 0.00 0.00 42 1015.4
20190319183703 54 0 6.0 13.0 0.00 0.00 0.00 42 1015.5
20190319183204 54 61 4.0 12.0 0.00 0.00 0.00 42 1015.6
20190319182704 54 97 5.0 12.0 0.00 0.00 0.00 43 1015.6
20190319182204 53 94 6.0 12.0 0.00 0.00 0.00 44 1015.7
20190319181703 53 71 7.0 14.0 0.00 0.00 0.00 45 1015.7
20190319181204 52 65 6.0 14.0 0.00 0.00 0.00 47 1015.7
20190319180704 52 40 5.0 15.0 0.00 0.00 0.00 50 1015.7
20190319180204 52 0 6.0 15.0 0.00 0.00 0.00 50 1015.9
20190319175704 51 63 7.0 15.0 0.00 0.00 0.00 51 1015.9
20190319175204 51 0 7.0 16.0 0.00 0.00 0.00 52 1015.9
20190319174704 50 80 8.0 16.0 0.00 0.00 0.00 53 1016.0
20190319174204 50 0 9.0 16.0 0.00 0.00 0.00 53 1016.0
20190319173704 49 0 9.0 15.0 0.00 0.00 0.00 54 1016.1
20190319173204 49 40 10.0 15.0 0.00 0.00 0.00 55 1016.0
20190319172704 49 82 10.0 15.0 0.00 0.00 0.00 56 1016.1
20190319172205 48 63 10.0 15.0 0.00 0.00 0.00 56 1016.1
20190319171703 48 74 10.0 14.0 0.00 0.00 0.00 56 1016.2
20190319171204 48 71 9.0 14.0 0.00 0.00 0.00 57 1016.1
20190319170704 47 78 8.0 14.0 0.00 0.00 0.00 57 1016.2
20190319170204 47 0 8.0 14.0 0.00 0.00 0.00 57 1016.2
20190319165704 47 92 9.0 14.0 0.00 0.00 0.00 58 1016.2
20190319165203 47 81 8.0 14.0 0.00 0.00 0.00 57 1016.2
20190319164704 47 0 7.0 13.0 0.00 0.00 0.00 57 1016.3
20190319164204 46 0 8.0 13.0 0.00 0.00 0.00 57 1016.3
20190319163704 46 82 8.0 14.0 0.00 0.00 0.00 57 1016.4
20190319163205 46 59 8.0 14.0 0.00 0.00 0.00 58 1016.5
20190319162704 46 0 8.0 14.0 0.00 0.00 0.00 59 1016.4
20190319162204 45 0 7.0 12.0 0.00 0.00 0.00 61 1016.5
20190319161704 45 78 4.0 8.0 0.00 0.00 0.00 62 1016.5
20190319161204 45 90 2.0 8.0 0.00 0.00 0.00 61 1016.7
20190319160703 44 153 3.0 9.0 0.00 0.00 0.00 61 1016.7
20190319160204 44 115 4.0 10.0 0.00 0.00 0.00 61 1016.7
20190319155704 44 89 5.0 11.0 0.00 0.00 0.00 62 1016.5
20190319155204 43 88 6.0 11.0 0.00 0.00 0.00 62 1016.7
20190319154704 43 76 6.0 9.0 0.00 0.00 0.00 63 1016.7
20190319154203 42 82 7.0 11.0 0.00 0.00 0.00 64 1016.8
20190319153704 42 66 7.0 11.0 0.00 0.00 0.00 65 1016.8
20190319153204 42 75 8.0 11.0 0.00 0.00 0.00 65 1016.8
20190319152703 42 78 7.0 11.0 0.00 0.00 0.00 64 1016.8
20190319152204 42 90 7.0 10.0 0.00 0.00 0.00 64 1016.7
20190319151705 42 79 6.0 10.0 0.00 0.00 0.00 64 1016.8
20190319151204 42 80 6.0 9.0 0.00 0.00 0.00 64 1016.8
20190319150704 42 53 5.0 9.0 0.00 0.00 0.00 64 1016.8
20190319150204 42 96 5.0 11.0 0.00 0.00 0.00 63 1016.8
20190319145704 42 68 6.0 11.0 0.00 0.00 0.00 63 1016.7
20190319145204 42 0 8.0 11.0 0.00 0.00 0.00 62 1016.5
20190319144704 42 105 8.0 11.0 0.00 0.00 0.00 62 1016.4
20190319144204 42 63 7.0 10.0 0.00 0.00 0.00 64 1016.5
20190319143704 42 71 6.0 9.0 0.00 0.00 0.00 64 1016.5
20190319143204 42 79 6.0 9.0 0.00 0.00 0.00 63 1016.7
20190319142703 42 78 6.0 9.0 0.00 0.00 0.00 63 1016.7
20190319142204 42 59 5.0 10.0 0.00 0.00 0.00 63 1016.7
20190319141704 42 79 6.0 10.0 0.00 0.00 0.00 62 1016.7
20190319141204 43 74 6.0 10.0 0.00 0.00 0.00 61 1016.5
20190319140704 42 59 6.0 10.0 0.00 0.00 0.00 61 1016.5
20190319140204 42 74 5.0 13.0 0.00 0.00 0.00 61 1016.7
20190319135704 42 69 5.0 13.0 0.00 0.00 0.00 61 1016.7
20190319135204 43 83 6.0 13.0 0.00 0.00 0.00 60 1016.7
20190319134704 43 74 7.0 13.0 0.00 0.00 0.00 60 1016.5
20190319134205 43 74 7.0 13.0 0.00 0.00 0.00 60 1016.5
20190319133704 43 0 8.0 13.0 0.00 0.00 0.00 60 1016.5
20190319133204 43 73 7.0 10.0 0.00 0.00 0.00 59 1016.7
20190319132704 43 72 6.0 10.0 0.00 0.00 0.00 60 1016.7
20190319132205 43 103 5.0 11.0 0.00 0.00 0.00 60 1016.5
20190319131704 43 0 5.0 12.0 0.00 0.00 0.00 60 1016.7
20190319131205 43 74 7.0 12.0 0.00 0.00 0.00 60 1016.7
20190319130704 43 0 7.0 12.0 0.00 0.00 0.00 60 1016.7
20190319130204 43 72 7.0 13.0 0.00 0.00 0.00 60 1016.7
20190319125704 43 0 8.0 14.0 0.00 0.00 0.00 59 1016.5
20190319125204 44 74 8.0 14.0 0.00 0.00 0.00 59 1016.4
20190319124705 44 61 9.0 14.0 0.00 0.00 0.00 59 1016.5
20190319124204 44 0 8.0 12.0 0.00 0.00 0.00 59 1016.4
20190319123703 44 62 7.0 12.0 0.00 0.00 0.00 59 1016.4
20190319123205 44 0 5.0 12.0 0.00 0.00 0.00 59 1016.4
20190319122704 44 53 5.0 14.0 0.00 0.00 0.00 59 1016.4
20190319122204 44 72 8.0 16.0 0.00 0.00 0.00 59 1016.4
20190319121705 44 70 9.0 16.0 0.00 0.00 0.00 59 1016.3
20190319121204 44 86 9.0 16.0 0.00 0.00 0.00 59 1016.1
20190319120704 44 0 8.0 14.0 0.00 0.00 0.00 59 1016.1
20190319120205 44 0 7.0 14.0 0.00 0.00 0.00 60 1016.3
20190319115703 44 85 6.0 11.0 0.00 0.00 0.00 60 1016.4
20190319115204 43 78 5.0 10.0 0.00 0.00 0.00 61 1016.5
20190319114703 43 86 6.0 10.0 0.00 0.00 0.00 60 1016.5
20190319114204 44 87 7.0 10.0 0.00 0.00 0.00 58 1016.5
20190319113703 45 72 6.0 10.0 0.00 0.00 0.00 56 1016.7
20190319113204 46 92 6.0 11.0 0.00 0.00 0.00 55 1016.7
20190319112704 46 0 5.0 12.0 0.00 0.00 0.00 55 1016.7
20190319112203 46 50 6.0 12.0 0.00 0.00 0.00 54 1016.7
20190319111704 46 87 8.0 13.0 0.00 0.00 0.00 54 1016.7
20190319111204 46 69 8.0 13.0 0.00 0.00 0.00 55 1016.5
20190319110704 46 69 7.0 15.0 0.00 0.00 0.00 55 1016.7
20190319110204 46 78 7.0 15.0 0.00 0.00 0.00 55 1016.8
20190319105704 46 87 8.0 15.0 0.00 0.00 0.00 55 1016.7
20190319105204 46 47 6.0 12.0 0.00 0.00 0.00 55 1016.7
20190319104704 46 73 5.0 12.0 0.00 0.00 0.00 55 1016.7
20190319104204 46 104 6.0 12.0 0.00 0.00 0.00 55 1016.8
20190319103705 46 0 7.0 13.0 0.00 0.00 0.00 54 1016.8
20190319103204 46 53 8.0 13.0 0.00 0.00 0.00 54 1016.9
20190319102704 47 74 7.0 14.0 0.00 0.00 0.00 54 1016.9
20190319102204 47 0 7.0 14.0 0.00 0.00 0.00 53 1017.0
20190319101704 47 114 8.0 14.0 0.00 0.00 0.00 51 1016.9
20190319101206 47 95 8.0 14.0 0.00 0.00 0.00 53 1017.0
20190319100704 47 0 8.0 14.0 0.00 0.00 0.00 52 1016.9
20190319100204 47 0 7.0 14.0 0.00 0.00 0.00 54 1017.0
20190319095704 47 0 6.0 12.0 0.00 0.00 0.00 54 1017.0
20190319095204 47 92 6.0 12.0 0.00 0.00 0.00 53 1017.0
20190319094704 47 97 6.0 12.0 0.00 0.00 0.00 54 1017.1
20190319094204 47 90 5.0 12.0 0.00 0.00 0.00 53 1017.0
20190319093704 47 62 5.0 11.0 0.00 0.00 0.00 53 1017.1
20190319093204 47 61 4.0 9.0 0.00 0.00 0.00 53 1017.1
20190319092704 46 47 3.0 11.0 0.00 0.00 0.00 53 1017.1
20190319092204 47 91 5.0 11.0 0.00 0.00 0.00 51 1017.1
20190319091704 47 92 6.0 11.0 0.00 0.00 0.00 52 1017.2
20190319091203 46 98 5.0 11.0 0.00 0.00 0.00 52 1017.2
20190319090704 46 63 4.0 9.0 0.00 0.00 0.00 54 1017.2
20190319090204 45 102 3.0 9.0 0.00 0.00 0.00 55 1017.3
20190319085704 46 98 3.0 9.0 0.00 0.00 0.00 54 1017.2
20190319085204 46 105 4.0 9.0 0.00 0.00 0.00 54 1017.2
20190319084704 46 71 5.0 9.0 0.00 0.00 0.00 54 1017.2
20190319084204 46 87 6.0 11.0 0.00 0.00 0.00 54 1017.2
20190319083704 46 76 6.0 12.0 0.00 0.00 0.00 54 1017.2
20190319083205 46 71 7.0 12.0 0.00 0.00 0.00 53 1017.2
20190319082704 46 71 7.0 12.0 0.00 0.00 0.00 53 1017.2
20190319082204 46 0 7.0 12.0 0.00 0.00 0.00 53 1017.2
20190319081704 47 84 7.0 16.0 0.00 0.00 0.00 53 1017.1
20190319081204 47 73 7.0 18.0 0.00 0.00 0.00 52 1017.1